createdAt,value
2018-05-12T00:00:26.785Z,0
2018-05-12T00:01:07.363Z,0
2018-05-12T00:01:47.931Z,0
2018-05-12T00:02:28.538Z,0
2018-05-12T00:03:09.142Z,0
2018-05-12T00:03:49.710Z,0
2018-05-12T00:04:30.330Z,0
2018-05-12T00:05:10.877Z,0
2018-05-12T00:05:51.568Z,0
2018-05-12T00:06:32.020Z,0
2018-05-12T00:07:12.586Z,0
2018-05-12T00:07:53.124Z,0
2018-05-12T00:08:33.674Z,0
2018-05-12T00:09:14.234Z,0
2018-05-12T00:09:54.771Z,0
2018-05-12T00:10:35.332Z,0
2018-05-12T00:11:15.945Z,0
2018-05-12T00:11:56.512Z,0
2018-05-12T00:12:37.075Z,0
2018-05-12T00:13:17.660Z,0
2018-05-12T00:13:58.203Z,0
2018-05-12T00:14:38.763Z,0
2018-05-12T00:15:19.394Z,0
2018-05-12T00:15:59.939Z,0
2018-05-12T00:16:40.529Z,0
2018-05-12T00:17:21.063Z,0
2018-05-12T00:18:01.619Z,0
2018-05-12T00:18:42.176Z,0
2018-05-12T00:19:22.742Z,0
2018-05-12T00:20:03.283Z,0
2018-05-12T00:20:43.849Z,0
2018-05-12T00:21:24.436Z,0
2018-05-12T00:22:04.989Z,0
2018-05-12T00:22:45.549Z,0
2018-05-12T00:23:26.109Z,0
2018-05-12T00:24:06.671Z,0
2018-05-12T00:24:47.221Z,0
2018-05-12T00:25:27.787Z,0
2018-05-12T00:26:08.366Z,0
2018-05-12T00:26:48.936Z,0
2018-05-12T00:27:29.503Z,0
2018-05-12T00:28:10.076Z,0
2018-05-12T00:28:50.609Z,0
2018-05-12T00:29:31.154Z,0
2018-05-12T00:30:11.739Z,0
2018-05-12T00:30:52.282Z,0
2018-05-12T00:31:32.830Z,0
2018-05-12T00:32:13.400Z,0
2018-05-12T00:32:53.952Z,0
2018-05-12T00:33:34.510Z,0
2018-05-12T00:34:15.053Z,0
2018-05-12T00:34:55.608Z,0
2018-05-12T00:35:36.178Z,0
2018-05-12T00:36:16.751Z,0
2018-05-12T00:36:57.323Z,0
2018-05-12T00:37:37.892Z,0
2018-05-12T00:38:18.470Z,0
2018-05-12T00:38:59.030Z,0
2018-05-12T00:39:39.601Z,0
2018-05-12T00:40:20.174Z,0
2018-05-12T00:41:00.731Z,0
2018-05-12T00:41:41.296Z,0
2018-05-12T00:42:21.873Z,0
2018-05-12T00:43:02.566Z,0
2018-05-12T00:43:43.008Z,0
2018-05-12T00:44:23.619Z,0
2018-05-12T00:45:04.200Z,0
2018-05-12T00:45:44.759Z,0
2018-05-12T00:46:25.331Z,0
2018-05-12T00:47:05.899Z,0
2018-05-12T00:47:46.465Z,0
2018-05-12T00:48:26.995Z,0
2018-05-12T00:49:07.537Z,0
2018-05-12T00:49:48.087Z,0
2018-05-12T00:50:28.660Z,0
2018-05-12T00:51:09.228Z,0
2018-05-12T00:51:49.781Z,0
2018-05-12T00:52:30.317Z,0
2018-05-12T00:53:10.880Z,0
2018-05-12T00:53:51.449Z,0
2018-05-12T00:54:32.019Z,0
2018-05-12T00:55:12.592Z,0
2018-05-12T00:55:53.158Z,0
2018-05-12T00:56:33.712Z,0
2018-05-12T00:57:14.284Z,0
2018-05-12T00:57:54.848Z,0
2018-05-12T00:58:35.426Z,0
2018-05-12T00:59:15.973Z,0
2018-05-12T00:59:56.554Z,0
2018-05-12T01:00:37.092Z,0
2018-05-12T01:01:17.641Z,0
2018-05-12T01:01:58.213Z,0
2018-05-12T01:02:38.780Z,0
2018-05-12T01:03:19.365Z,0
2018-05-12T01:03:59.929Z,0
2018-05-12T01:04:40.492Z,0
2018-05-12T01:05:21.063Z,0
2018-05-12T01:06:01.693Z,0
2018-05-12T01:06:42.260Z,0
2018-05-12T01:07:22.822Z,0
2018-05-12T01:08:03.402Z,0
2018-05-12T01:08:43.974Z,0
2018-05-12T01:09:24.652Z,0
2018-05-12T01:10:05.211Z,0
2018-05-12T01:10:45.779Z,0
2018-05-12T01:11:26.333Z,0
2018-05-12T01:12:06.896Z,0
2018-05-12T01:12:47.450Z,0
2018-05-12T01:13:28.096Z,0
2018-05-12T01:14:08.543Z,0
2018-05-12T01:14:49.081Z,0
2018-05-12T01:15:29.648Z,0
2018-05-12T01:16:10.209Z,0
2018-05-12T01:16:50.808Z,0
2018-05-12T01:17:31.376Z,0
2018-05-12T01:18:11.946Z,0
2018-05-12T01:18:52.497Z,0
2018-05-12T01:19:33.051Z,0
2018-05-12T01:20:13.619Z,0
2018-05-12T01:20:54.185Z,0
2018-05-12T01:21:34.748Z,0
2018-05-12T01:22:15.319Z,0
2018-05-12T01:22:55.880Z,0
2018-05-12T01:23:36.449Z,0
2018-05-12T01:24:17.022Z,0
2018-05-12T01:24:57.587Z,0
2018-05-12T01:25:38.144Z,0
2018-05-12T01:26:18.721Z,0
2018-05-12T01:26:59.316Z,0
2018-05-12T01:27:39.873Z,0
2018-05-12T01:28:20.436Z,0
2018-05-12T01:29:00.994Z,0
2018-05-12T01:29:41.547Z,0
2018-05-12T01:30:22.130Z,0
2018-05-12T01:31:02.703Z,0
2018-05-12T01:31:43.265Z,0
2018-05-12T01:32:23.829Z,0
2018-05-12T01:33:04.381Z,0
2018-05-12T01:33:44.952Z,0
2018-05-12T01:34:25.528Z,0
2018-05-12T01:35:06.090Z,0
2018-05-12T01:35:46.669Z,0
2018-05-12T01:36:27.229Z,0
2018-05-12T01:37:07.795Z,0
2018-05-12T01:37:48.366Z,0
2018-05-12T01:38:28.919Z,0
2018-05-12T01:39:09.492Z,0
2018-05-12T01:39:50.044Z,0
2018-05-12T01:40:30.597Z,0
2018-05-12T01:41:11.168Z,0
2018-05-12T01:41:51.743Z,0
2018-05-12T01:42:32.312Z,0
2018-05-12T01:43:12.851Z,0
2018-05-12T01:43:53.423Z,0
2018-05-12T01:44:34.024Z,0
2018-05-12T01:45:14.585Z,0
2018-05-12T01:45:55.179Z,0
2018-05-12T01:46:35.736Z,0
2018-05-12T01:47:16.251Z,0
2018-05-12T01:47:56.835Z,0
2018-05-12T01:48:37.372Z,0
2018-05-12T01:49:17.951Z,0
2018-05-12T01:49:58.603Z,0
2018-05-12T01:50:39.129Z,0
2018-05-12T01:51:19.685Z,0
2018-05-12T01:52:00.211Z,0
2018-05-12T01:52:40.786Z,0
2018-05-12T01:53:21.381Z,0
2018-05-12T01:54:01.944Z,0
2018-05-12T01:54:42.511Z,0
2018-05-12T01:55:23.061Z,0
2018-05-12T01:56:03.612Z,0
2018-05-12T01:56:44.191Z,0
2018-05-12T01:57:24.764Z,0
2018-05-12T01:58:05.324Z,0
2018-05-12T01:58:45.908Z,0
2018-05-12T01:59:26.433Z,0
2018-05-12T02:00:06.987Z,0
2018-05-12T02:00:47.580Z,0
2018-05-12T02:01:28.180Z,0
2018-05-12T02:02:08.797Z,0
2018-05-12T02:02:49.403Z,0
2018-05-12T02:03:29.979Z,0
2018-05-12T02:04:10.548Z,0
2018-05-12T02:04:51.182Z,0
2018-05-12T02:05:31.751Z,0
2018-05-12T02:06:12.311Z,0
2018-05-12T02:06:52.862Z,0
2018-05-12T02:07:33.431Z,0
2018-05-12T02:08:13.986Z,0
2018-05-12T02:08:54.580Z,0
2018-05-12T02:09:35.141Z,0
2018-05-12T02:10:15.695Z,0
2018-05-12T02:10:56.259Z,0
2018-05-12T02:11:36.806Z,0
2018-05-12T02:12:17.385Z,0
2018-05-12T02:12:57.952Z,0
2018-05-12T02:13:38.515Z,0
2018-05-12T02:14:19.083Z,0
2018-05-12T02:14:59.628Z,0
2018-05-12T02:15:40.186Z,0
2018-05-12T02:16:20.751Z,0
2018-05-12T02:17:01.309Z,0
2018-05-12T02:17:41.903Z,0
2018-05-12T02:18:22.484Z,0
2018-05-12T02:19:03.060Z,0
2018-05-12T02:19:43.613Z,0
2018-05-12T02:20:24.180Z,0
2018-05-12T02:21:04.734Z,0
2018-05-12T02:21:45.291Z,0
2018-05-12T02:22:25.848Z,0
2018-05-12T02:23:06.420Z,0
2018-05-12T02:23:47.002Z,0
2018-05-12T02:24:27.579Z,0
2018-05-12T02:25:08.156Z,0
2018-05-12T02:25:48.739Z,0
2018-05-12T02:26:29.359Z,0
2018-05-12T02:27:09.919Z,0
2018-05-12T02:27:50.455Z,0
2018-05-12T02:28:30.994Z,0
2018-05-12T02:29:11.577Z,0
2018-05-12T02:29:52.108Z,0
2018-05-12T02:30:32.675Z,0
2018-05-12T02:31:13.259Z,0
2018-05-12T02:31:53.775Z,0
2018-05-12T02:32:34.336Z,0
2018-05-12T02:33:14.914Z,0
2018-05-12T02:33:55.480Z,0
2018-05-12T02:34:36.040Z,0
2018-05-12T02:35:16.594Z,0
2018-05-12T02:35:57.152Z,0
2018-05-12T02:36:37.704Z,0
2018-05-12T02:37:18.268Z,0
2018-05-12T02:37:58.823Z,0
2018-05-12T02:38:39.382Z,0
2018-05-12T02:39:19.942Z,0
2018-05-12T02:40:00.533Z,0
2018-05-12T02:40:41.099Z,0
2018-05-12T02:41:21.705Z,0
2018-05-12T02:42:02.351Z,0
2018-05-12T02:42:42.934Z,0
2018-05-12T02:43:23.518Z,0
2018-05-12T02:44:04.080Z,0
2018-05-12T02:44:44.627Z,0
2018-05-12T02:45:25.181Z,0
2018-05-12T02:46:05.764Z,4
2018-05-12T02:46:46.307Z,4
2018-05-12T02:47:26.865Z,4
2018-05-12T02:48:07.462Z,4
2018-05-12T02:48:48.019Z,0
2018-05-12T02:49:28.567Z,0
2018-05-12T02:50:09.143Z,4
2018-05-12T02:50:49.719Z,4
2018-05-12T02:51:30.253Z,4
2018-05-12T02:52:10.816Z,4
2018-05-12T02:52:51.363Z,4
2018-05-12T02:53:31.907Z,4
2018-05-12T02:54:12.470Z,4
2018-05-12T02:54:53.044Z,4
2018-05-12T02:55:33.622Z,8
2018-05-12T02:56:14.172Z,4
2018-05-12T02:56:54.743Z,4
2018-05-12T02:57:35.293Z,8
2018-05-12T02:58:15.863Z,4
2018-05-12T02:58:56.423Z,8
2018-05-12T02:59:36.975Z,8
2018-05-12T03:00:17.528Z,8
2018-05-12T03:00:58.127Z,8
2018-05-12T03:01:38.685Z,12
2018-05-12T03:02:19.247Z,12
2018-05-12T03:02:59.812Z,16
2018-05-12T03:03:40.382Z,12
2018-05-12T03:04:20.950Z,12
2018-05-12T03:05:01.507Z,20
2018-05-12T03:05:42.068Z,20
2018-05-12T03:06:22.638Z,20
2018-05-12T03:07:03.213Z,24
2018-05-12T03:07:43.809Z,24
2018-05-12T03:08:24.391Z,28
2018-05-12T03:09:04.954Z,28
2018-05-12T03:09:45.506Z,36
2018-05-12T03:10:26.062Z,36
2018-05-12T03:11:06.619Z,40
2018-05-12T03:11:47.189Z,44
2018-05-12T03:12:27.733Z,44
2018-05-12T03:13:08.311Z,48
2018-05-12T03:13:48.872Z,48
2018-05-12T03:14:29.450Z,52
2018-05-12T03:15:10.004Z,52
2018-05-12T03:15:50.579Z,56
2018-05-12T03:16:31.129Z,56
2018-05-12T03:17:11.683Z,60
2018-05-12T03:17:52.243Z,64
2018-05-12T03:18:32.817Z,68
2018-05-12T03:19:13.367Z,68
2018-05-12T03:19:53.952Z,72
2018-05-12T03:20:34.542Z,72
2018-05-12T03:21:15.111Z,72
2018-05-12T03:21:55.688Z,76
2018-05-12T03:22:36.291Z,80
2018-05-12T03:23:16.843Z,84
2018-05-12T03:23:57.397Z,84
2018-05-12T03:24:37.964Z,88
2018-05-12T03:25:18.556Z,92
2018-05-12T03:25:59.113Z,92
2018-05-12T03:26:39.699Z,96
2018-05-12T03:27:20.271Z,100
2018-05-12T03:28:00.822Z,100
2018-05-12T03:28:41.437Z,100
2018-05-12T03:29:21.990Z,104
2018-05-12T03:30:02.548Z,108
2018-05-12T03:30:43.106Z,112
2018-05-12T03:31:23.707Z,116
2018-05-12T03:32:04.238Z,120
2018-05-12T03:32:44.816Z,128
2018-05-12T03:33:25.385Z,136
2018-05-12T03:34:05.925Z,140
2018-05-12T03:34:46.489Z,144
2018-05-12T03:35:27.057Z,152
2018-05-12T03:36:07.625Z,152
2018-05-12T03:36:48.164Z,156
2018-05-12T03:37:28.722Z,160
2018-05-12T03:38:09.273Z,160
2018-05-12T03:38:49.858Z,164
2018-05-12T03:39:30.396Z,168
2018-05-12T03:40:10.977Z,168
2018-05-12T03:40:51.542Z,172
2018-05-12T03:41:32.135Z,176
2018-05-12T03:42:12.743Z,180
2018-05-12T03:42:53.246Z,184
2018-05-12T03:43:33.807Z,188
2018-05-12T03:44:15.168Z,192
2018-05-12T03:44:55.809Z,196
2018-05-12T03:45:36.685Z,204
2018-05-12T03:46:17.627Z,208
2018-05-12T03:46:58.448Z,212
2018-05-12T03:47:39.089Z,212
2018-05-12T03:48:19.594Z,216
2018-05-12T03:49:00.272Z,220
2018-05-12T03:49:41.055Z,228
2018-05-12T03:50:21.664Z,236
2018-05-12T03:51:02.285Z,244
2018-05-12T03:51:42.890Z,252
2018-05-12T03:52:23.788Z,260
2018-05-12T03:53:04.347Z,268
2018-05-12T03:53:45.089Z,276
2018-05-12T03:54:25.793Z,284
2018-05-12T03:55:06.337Z,296
2018-05-12T03:55:46.895Z,308
2018-05-12T03:56:27.453Z,328
2018-05-12T03:57:08.013Z,348
2018-05-12T03:57:48.583Z,364
2018-05-12T03:58:29.139Z,380
2018-05-12T03:59:10.007Z,396
2018-05-12T03:59:50.841Z,404
2018-05-12T04:00:31.659Z,400
2018-05-12T04:01:12.469Z,400
2018-05-12T04:01:53.250Z,400
2018-05-12T04:02:34.146Z,400
2018-05-12T04:03:14.877Z,404
2018-05-12T04:03:55.774Z,412
2018-05-12T04:04:36.579Z,420
2018-05-12T04:05:17.190Z,432
2018-05-12T04:05:57.760Z,448
2018-05-12T04:06:38.350Z,472
2018-05-12T04:07:18.936Z,492
2018-05-12T04:07:59.516Z,516
2018-05-12T04:08:40.127Z,536
2018-05-12T04:09:20.661Z,552
2018-05-12T04:10:01.217Z,560
2018-05-12T04:10:41.792Z,564
2018-05-12T04:11:22.334Z,564
2018-05-12T04:12:02.894Z,564
2018-05-12T04:12:43.439Z,568
2018-05-12T04:13:24.019Z,576
2018-05-12T04:14:04.587Z,588
2018-05-12T04:14:45.211Z,604
2018-05-12T04:15:25.768Z,624
2018-05-12T04:16:06.385Z,644
2018-05-12T04:16:46.972Z,660
2018-05-12T04:17:27.596Z,684
2018-05-12T04:18:08.124Z,712
2018-05-12T04:18:48.703Z,752
2018-05-12T04:19:29.234Z,796
2018-05-12T04:20:09.800Z,848
2018-05-12T04:20:50.330Z,904
2018-05-12T04:21:30.918Z,952
2018-05-12T04:22:11.467Z,988
2018-05-12T04:22:52.137Z,1012
2018-05-12T04:23:32.709Z,1020
2018-05-12T04:24:13.229Z,1028
2018-05-12T04:24:53.779Z,1036
2018-05-12T04:25:34.411Z,1060
2018-05-12T04:26:14.955Z,1096
2018-05-12T04:26:55.513Z,1156
2018-05-12T04:27:36.101Z,1240
2018-05-12T04:28:16.705Z,1340
2018-05-12T04:28:57.266Z,1472
2018-05-12T04:29:37.851Z,1636
2018-05-12T04:30:18.392Z,1836
2018-05-12T04:30:58.965Z,2036
2018-05-12T04:31:39.516Z,2228
2018-05-12T04:32:20.116Z,2396
2018-05-12T04:33:00.694Z,2512
2018-05-12T04:33:41.271Z,2560
2018-05-12T04:34:21.868Z,2532
2018-05-12T04:35:02.503Z,2504
2018-05-12T04:35:43.079Z,2504
2018-05-12T04:36:23.642Z,2548
2018-05-12T04:37:04.221Z,2632
2018-05-12T04:37:44.803Z,2736
2018-05-12T04:38:25.359Z,2844
2018-05-12T04:39:05.953Z,2960
2018-05-12T04:39:46.562Z,3080
2018-05-12T04:40:27.140Z,3164
2018-05-12T04:41:07.700Z,3236
2018-05-12T04:41:48.281Z,3304
2018-05-12T04:42:28.862Z,3372
2018-05-12T04:43:09.454Z,3452
2018-05-12T04:43:50.009Z,3580
2018-05-12T04:44:30.638Z,3712
2018-05-12T04:45:11.212Z,3824
2018-05-12T04:45:51.761Z,3908
2018-05-12T04:46:32.391Z,3964
2018-05-12T04:47:12.962Z,3996
2018-05-12T04:47:55.836Z,4016
2018-05-12T04:48:36.429Z,4056
2018-05-12T04:49:16.948Z,4080
2018-05-12T04:49:57.508Z,4120
2018-05-12T04:50:38.071Z,4192
2018-05-12T04:51:18.639Z,4272
2018-05-12T04:51:59.217Z,4332
2018-05-12T04:52:39.779Z,4392
2018-05-12T04:53:20.370Z,4436
2018-05-12T04:54:00.929Z,4480
2018-05-12T04:54:41.496Z,4532
2018-05-12T04:55:22.069Z,4600
2018-05-12T04:56:02.629Z,4664
2018-05-12T04:56:43.213Z,4740
2018-05-12T04:57:23.771Z,4824
2018-05-12T04:58:04.319Z,4904
2018-05-12T04:58:44.897Z,4984
2018-05-12T04:59:25.526Z,5080
2018-05-12T05:00:06.035Z,5176
2018-05-12T05:00:46.607Z,5268
2018-05-12T05:01:27.170Z,5332
2018-05-12T05:02:07.732Z,5364
2018-05-12T05:02:48.298Z,5392
2018-05-12T05:03:28.848Z,5412
2018-05-12T05:04:09.418Z,5420
2018-05-12T05:04:49.965Z,5436
2018-05-12T05:05:30.558Z,5460
2018-05-12T05:06:11.126Z,5512
2018-05-12T05:06:51.742Z,5592
2018-05-12T05:07:32.296Z,5684
2018-05-12T05:08:12.870Z,5804
2018-05-12T05:08:53.428Z,5916
2018-05-12T05:09:34.002Z,6036
2018-05-12T05:10:14.557Z,6124
2018-05-12T05:10:55.113Z,6184
2018-05-12T05:11:35.675Z,6260
2018-05-12T05:12:16.246Z,6344
2018-05-12T05:12:56.793Z,6424
2018-05-12T05:13:37.367Z,6528
2018-05-12T05:14:17.983Z,6620
2018-05-12T05:14:58.537Z,6708
2018-05-12T05:15:39.098Z,6776
2018-05-12T05:16:19.652Z,6824
2018-05-12T05:17:00.221Z,6856
2018-05-12T05:17:40.827Z,6924
2018-05-12T05:18:21.428Z,6928
2018-05-12T05:19:02.000Z,7028
2018-05-12T05:19:42.570Z,7184
2018-05-12T05:20:23.252Z,7188
2018-05-12T05:21:04.910Z,7236
2018-05-12T05:21:45.599Z,7356
2018-05-12T05:22:26.126Z,7384
2018-05-12T05:23:06.739Z,7448
2018-05-12T05:23:47.367Z,7572
2018-05-12T05:24:27.979Z,7660
2018-05-12T05:25:08.609Z,7752
2018-05-12T05:25:49.201Z,7912
2018-05-12T05:26:29.761Z,8004
2018-05-12T05:27:10.339Z,8180
2018-05-12T05:27:50.917Z,8272
2018-05-12T05:28:31.488Z,8392
2018-05-12T05:29:12.047Z,8532
2018-05-12T05:29:52.607Z,8676
2018-05-12T05:30:33.184Z,8812
2018-05-12T05:31:13.733Z,9592
2018-05-12T05:31:54.300Z,16384
2018-05-12T05:32:34.859Z,27776
2018-05-12T05:33:15.422Z,37664
2018-05-12T05:33:55.998Z,44384
2018-05-12T05:34:36.557Z,42368
2018-05-12T05:35:17.179Z,42720
2018-05-12T05:35:57.686Z,44032
2018-05-12T05:36:38.257Z,46272
2018-05-12T05:37:18.823Z,48064
2018-05-12T05:37:59.364Z,48448
2018-05-12T05:38:39.924Z,48736
2018-05-12T05:39:20.469Z,48448
2018-05-12T05:40:01.045Z,50432
2018-05-12T05:40:41.588Z,50432
2018-05-12T05:41:22.165Z,50560
2018-05-12T05:42:02.750Z,51232
2018-05-12T05:42:43.319Z,51104
2018-05-12T05:43:23.906Z,51168
2018-05-12T05:44:04.463Z,51968
2018-05-12T05:44:45.049Z,51008
2018-05-12T05:45:25.627Z,52928
2018-05-12T05:46:06.195Z,54016
2018-05-12T05:46:46.753Z,53888
2018-05-12T05:47:27.321Z,53696
2018-05-12T05:48:07.862Z,54496
2018-05-12T05:48:48.436Z,55136
2018-05-12T05:49:29.011Z,55680
2018-05-12T05:50:09.629Z,54304
2018-05-12T05:50:50.152Z,55264
2018-05-12T05:51:30.711Z,54848
2018-05-12T05:52:11.284Z,56256
2018-05-12T05:52:51.873Z,56576
2018-05-12T05:53:32.446Z,53600
2018-05-12T05:54:13.009Z,52960
2018-05-12T05:54:53.591Z,50880
2018-05-12T05:55:34.171Z,51168
2018-05-12T05:56:14.742Z,49728
2018-05-12T05:56:55.304Z,51584
2018-05-12T05:57:35.876Z,49856
2018-05-12T05:58:16.456Z,46976
2018-05-12T05:58:57.033Z,44384
2018-05-12T05:59:37.608Z,44608
2018-05-12T06:00:18.164Z,41088
2018-05-12T06:00:58.734Z,43424
2018-05-12T06:01:39.280Z,45056
2018-05-12T06:02:19.853Z,46720
2018-05-12T06:03:00.424Z,42496
2018-05-12T06:03:40.987Z,40192
2018-05-12T06:04:21.571Z,37504
2018-05-12T06:05:02.137Z,44160
2018-05-12T06:05:42.727Z,47232
2018-05-12T06:06:23.302Z,49088
2018-05-12T06:07:03.916Z,46208
2018-05-12T06:07:44.440Z,46304
2018-05-12T06:08:25.012Z,46624
2018-05-12T06:09:05.576Z,44128
2018-05-12T06:09:46.130Z,28640
2018-05-12T06:10:26.705Z,31680
2018-05-12T06:11:07.280Z,34240
2018-05-12T06:11:47.847Z,40672
2018-05-12T06:12:28.422Z,23488
2018-05-12T06:13:08.979Z,19520
2018-05-12T06:13:49.568Z,17024
2018-05-12T06:14:30.143Z,17760
2018-05-12T06:15:10.724Z,20736
2018-05-12T06:15:51.285Z,20640
2018-05-12T06:16:31.849Z,17408
2018-05-12T06:17:12.411Z,16672
2018-05-12T06:17:53.002Z,11376
2018-05-12T06:18:33.561Z,9616
2018-05-12T06:19:14.131Z,9028
2018-05-12T06:19:54.704Z,9000
2018-05-12T06:20:35.277Z,9236
2018-05-12T06:21:15.836Z,9616
2018-05-12T06:21:56.398Z,10508
2018-05-12T06:22:36.962Z,12080
2018-05-12T06:23:17.528Z,12468
2018-05-12T06:23:58.098Z,12276
2018-05-12T06:24:38.670Z,12156
2018-05-12T06:25:19.249Z,11560
2018-05-12T06:25:59.806Z,11340
2018-05-12T06:26:40.374Z,11664
2018-05-12T06:27:20.950Z,11392
2018-05-12T06:28:01.586Z,10744
2018-05-12T06:28:42.099Z,10428
2018-05-12T06:29:22.663Z,10804
2018-05-12T06:30:03.226Z,9968
2018-05-12T06:30:43.801Z,9568
2018-05-12T06:31:24.387Z,9532
2018-05-12T06:32:04.951Z,9720
2018-05-12T06:32:45.532Z,10284
2018-05-12T06:33:26.115Z,9304
2018-05-12T06:34:06.688Z,8904
2018-05-12T06:34:47.260Z,8776
2018-05-12T06:35:27.830Z,8596
2018-05-12T06:36:08.400Z,8392
2018-05-12T06:36:48.972Z,8132
2018-05-12T06:37:29.554Z,8172
2018-05-12T06:38:10.224Z,8576
2018-05-12T06:38:50.680Z,8340
2018-05-12T06:39:31.234Z,8488
2018-05-12T06:40:11.810Z,8908
2018-05-12T06:40:52.363Z,9356
2018-05-12T06:41:32.940Z,9780
2018-05-12T06:42:13.532Z,10440
2018-05-12T06:42:54.132Z,10844
2018-05-12T06:43:34.697Z,11656
2018-05-12T06:44:15.256Z,11560
2018-05-12T06:44:55.847Z,10452
2018-05-12T06:45:36.467Z,9980
2018-05-12T06:46:17.033Z,10648
2018-05-12T06:46:57.599Z,11848
2018-05-12T06:47:38.180Z,12764
2018-05-12T06:48:18.732Z,16512
2018-05-12T06:48:59.293Z,14008
2018-05-12T06:49:39.874Z,14344
2018-05-12T06:50:20.441Z,13956
2018-05-12T06:51:00.996Z,15536
2018-05-12T06:51:41.569Z,19552
2018-05-12T06:52:22.130Z,37440
2018-05-12T06:53:02.695Z,26752
2018-05-12T06:53:43.274Z,25536
2018-05-12T06:54:23.874Z,28224
2018-05-12T06:55:04.516Z,38688
2018-05-12T06:55:45.076Z,25600
2018-05-12T06:56:25.657Z,28064
2018-05-12T06:57:06.227Z,26912
2018-05-12T06:57:46.804Z,21568
2018-05-12T06:58:27.379Z,15352
2018-05-12T06:59:07.940Z,13888
2018-05-12T06:59:48.509Z,10352
2018-05-12T07:00:29.073Z,8884
2018-05-12T07:01:09.652Z,7492
2018-05-12T07:01:50.220Z,6560
2018-05-12T07:02:30.779Z,6392
2018-05-12T07:03:11.357Z,6964
2018-05-12T07:03:51.908Z,8288
2018-05-12T07:04:32.485Z,10008
2018-05-12T07:05:13.045Z,12092
2018-05-12T07:05:53.616Z,14352
2018-05-12T07:06:34.195Z,22464
2018-05-12T07:07:14.784Z,9696
2018-05-12T07:07:55.395Z,7280
2018-05-12T07:08:35.967Z,6720
2018-05-12T07:09:16.527Z,7492
2018-05-12T07:09:57.113Z,10988
2018-05-12T07:10:37.684Z,11372
2018-05-12T07:11:18.262Z,12892
2018-05-12T07:11:58.827Z,16640
2018-05-12T07:12:39.480Z,17568
2018-05-12T07:13:20.055Z,21472
2018-05-12T07:14:00.630Z,27040
2018-05-12T07:14:42.054Z,27648
2018-05-12T07:15:22.573Z,60832
2018-05-12T07:16:03.156Z,30816
2018-05-12T07:16:43.719Z,33120
2018-05-12T07:17:24.295Z,70400
2018-05-12T07:18:04.869Z,68448
2018-05-12T07:18:45.448Z,67872
2018-05-12T07:19:26.054Z,58048
2018-05-12T07:20:06.614Z,20064
2018-05-12T07:20:47.181Z,28032
2018-05-12T07:21:28.209Z,19072
2018-05-12T07:22:08.780Z,69248
2018-05-12T07:22:49.331Z,19232
2018-05-12T07:23:29.911Z,21696
2018-05-12T07:24:10.447Z,39008
2018-05-12T07:24:51.013Z,19520
2018-05-12T07:25:31.589Z,18688
2018-05-12T07:26:12.140Z,30688
2018-05-12T07:26:52.744Z,61632
2018-05-12T07:27:33.324Z,69088
2018-05-12T07:28:13.889Z,67456
2018-05-12T07:28:54.466Z,69856
2018-05-12T07:29:35.070Z,76192
2018-05-12T07:30:15.641Z,74592
2018-05-12T07:30:56.214Z,77536
2018-05-12T07:31:36.794Z,78528
2018-05-12T07:32:17.357Z,33472
2018-05-12T07:32:57.931Z,74816
2018-05-12T07:33:38.494Z,37088
2018-05-12T07:34:19.059Z,69408
2018-05-12T07:34:59.623Z,10188
2018-05-12T07:35:40.219Z,7540
2018-05-12T07:36:20.800Z,6504
2018-05-12T07:37:01.364Z,6344
2018-05-12T07:37:41.973Z,6340
2018-05-12T07:38:22.526Z,6456
2018-05-12T07:39:03.189Z,6552
2018-05-12T07:39:43.759Z,6444
2018-05-12T07:40:24.333Z,5932
2018-05-12T07:41:04.907Z,5436
2018-05-12T07:41:45.480Z,4984
2018-05-12T07:42:26.068Z,4748
2018-05-12T07:43:06.626Z,4928
2018-05-12T07:43:47.209Z,5140
2018-05-12T07:44:27.773Z,5348
2018-05-12T07:45:08.366Z,5632
2018-05-12T07:45:48.927Z,5992
2018-05-12T07:46:29.508Z,6312
2018-05-12T07:47:10.073Z,6596
2018-05-12T07:47:50.709Z,6896
2018-05-12T07:48:31.298Z,7240
2018-05-12T07:49:11.891Z,7632
2018-05-12T07:49:52.462Z,8312
2018-05-12T07:50:33.021Z,9188
2018-05-12T07:51:13.597Z,10464
2018-05-12T07:51:54.157Z,12712
2018-05-12T07:52:34.738Z,9732
2018-05-12T07:53:15.332Z,8536
2018-05-12T07:53:55.904Z,8132
2018-05-12T07:54:36.485Z,8084
2018-05-12T07:55:17.078Z,8196
2018-05-12T07:55:57.728Z,8828
2018-05-12T07:56:38.394Z,10372
2018-05-12T07:57:19.149Z,11800
2018-05-12T07:57:59.746Z,13720
2018-05-12T07:58:40.309Z,18176
2018-05-12T07:59:20.894Z,12992
2018-05-12T08:00:01.535Z,12240
2018-05-12T08:00:42.054Z,12704
2018-05-12T08:01:22.616Z,13248
2018-05-12T08:02:03.186Z,12912
2018-05-12T08:02:43.741Z,12348
2018-05-12T08:03:24.365Z,13356
2018-05-12T08:04:04.916Z,13132
2018-05-12T08:04:45.482Z,10776
2018-05-12T08:05:26.053Z,9016
2018-05-12T08:06:06.636Z,8632
2018-05-12T08:06:47.208Z,8756
2018-05-12T08:07:27.818Z,8568
2018-05-12T08:08:08.361Z,8588
2018-05-12T08:08:48.929Z,8668
2018-05-12T08:09:29.516Z,8932
2018-05-12T08:10:10.141Z,9332
2018-05-12T08:10:50.640Z,9728
2018-05-12T08:11:31.208Z,10256
2018-05-12T08:12:11.772Z,10992
2018-05-12T08:12:52.431Z,12112
2018-05-12T08:13:32.940Z,13256
2018-05-12T08:14:13.504Z,13884
2018-05-12T08:14:54.105Z,13512
2018-05-12T08:15:34.645Z,13292
2018-05-12T08:16:15.179Z,11944
2018-05-12T08:16:55.726Z,10780
2018-05-12T08:17:36.300Z,10304
2018-05-12T08:18:16.849Z,9980
2018-05-12T08:18:57.501Z,9784
2018-05-12T08:19:38.080Z,9852
2018-05-12T08:20:18.662Z,9980
2018-05-12T08:20:59.220Z,9808
2018-05-12T08:21:39.778Z,9636
2018-05-12T08:22:20.342Z,9624
2018-05-12T08:23:00.938Z,9588
2018-05-12T08:23:41.512Z,9204
2018-05-12T08:24:22.086Z,8992
2018-05-12T08:25:02.665Z,8992
2018-05-12T08:25:43.242Z,9288
2018-05-12T08:26:23.804Z,9776
2018-05-12T08:27:04.579Z,10240
2018-05-12T08:27:45.182Z,10736
2018-05-12T08:28:25.762Z,11292
2018-05-12T08:29:06.431Z,11912
2018-05-12T08:29:47.014Z,12572
2018-05-12T08:30:28.130Z,14272
2018-05-12T08:31:08.670Z,14208
2018-05-12T08:31:49.276Z,16028
2018-05-12T08:32:29.828Z,17152
2018-05-12T08:33:10.419Z,16736
2018-05-12T08:33:51.586Z,15500
2018-05-12T08:34:32.212Z,15048
2018-05-12T08:35:12.815Z,14220
2018-05-12T08:35:53.388Z,11792
2018-05-12T08:36:33.971Z,11328
2018-05-12T08:37:14.554Z,10756
2018-05-12T08:37:55.141Z,10408
2018-05-12T08:38:35.718Z,9976
2018-05-12T08:39:16.308Z,9880
2018-05-12T08:39:56.882Z,10044
2018-05-12T08:40:37.463Z,10288
2018-05-12T08:41:18.051Z,10224
2018-05-12T08:41:58.606Z,10124
2018-05-12T08:42:39.190Z,9932
2018-05-12T08:43:19.761Z,9112
2018-05-12T08:44:00.307Z,8860
2018-05-12T08:44:40.901Z,8900
2018-05-12T08:45:21.468Z,9020
2018-05-12T08:46:02.060Z,9532
2018-05-12T08:46:42.645Z,9724
2018-05-12T08:47:23.258Z,8804
2018-05-12T08:48:03.816Z,9276
2018-05-12T08:48:44.389Z,8392
2018-05-12T08:49:24.961Z,8200
2018-05-12T08:50:05.539Z,8044
2018-05-12T08:50:46.100Z,7996
2018-05-12T08:51:26.648Z,7688
2018-05-12T08:52:07.195Z,7096
2018-05-12T08:52:47.756Z,6880
2018-05-12T08:53:28.345Z,6632
2018-05-12T08:54:08.939Z,6544
2018-05-12T08:54:49.509Z,6436
2018-05-12T08:55:30.056Z,6388
2018-05-12T08:56:10.627Z,6544
2018-05-12T08:56:51.213Z,6724
2018-05-12T08:57:31.788Z,7100
2018-05-12T08:58:12.377Z,7600
2018-05-12T08:58:52.971Z,8176
2018-05-12T08:59:33.532Z,8756
2018-05-12T09:00:14.117Z,9220
2018-05-12T09:00:54.684Z,9364
2018-05-12T09:01:35.250Z,9448
2018-05-12T09:02:15.817Z,9220
2018-05-12T09:02:56.367Z,8988
2018-05-12T09:03:37.528Z,9052
2018-05-12T09:04:18.100Z,9224
2018-05-12T09:04:58.675Z,9556
2018-05-12T09:05:39.236Z,9976
2018-05-12T09:06:19.820Z,10420
2018-05-12T09:07:00.383Z,10908
2018-05-12T09:07:40.945Z,11148
2018-05-12T09:08:21.511Z,10888
2018-05-12T09:09:02.079Z,10940
2018-05-12T09:09:42.641Z,11524
2018-05-12T09:10:23.204Z,10756
2018-05-12T09:11:03.774Z,10740
2018-05-12T09:11:44.329Z,9732
2018-05-12T09:12:24.892Z,9872
2018-05-12T09:13:05.455Z,10020
2018-05-12T09:13:46.009Z,10260
2018-05-12T09:14:26.589Z,10576
2018-05-12T09:15:07.140Z,10636
2018-05-12T09:15:47.717Z,10572
2018-05-12T09:16:28.274Z,11000
2018-05-12T09:17:08.845Z,11024